sensor_id;sensor_type;location;lat;lon;timestamp;pressure;altitude;pressure_sealevel;temperature;humidity
47104;BME280;32853;52.164;5.400;2023-01-01T00:01:28;100609.53;;;16.96;86.49
47104;BME280;32853;52.164;5.400;2023-01-01T00:03:58;100604.75;;;16.89;87.81
47104;BME280;32853;52.164;5.400;2023-01-01T00:06:24;100603.47;;;16.94;87.52
47104;BME280;32853;52.164;5.400;2023-01-01T00:09:02;100606.66;;;16.99;87.18
47104;BME280;32853;52.164;5.400;2023-01-01T00:11:50;100587.84;;;16.66;89.83
47104;BME280;32853;52.164;5.400;2023-01-01T00:14:15;100600.66;;;16.97;87.54
47104;BME280;32853;52.164;5.400;2023-01-01T00:16:41;100604.75;;;16.89;88.41
47104;BME280;32853;52.164;5.400;2023-01-01T00:19:08;100614.72;;;16.85;88.58
47104;BME280;32853;52.164;5.400;2023-01-01T00:21:33;100605.72;;;16.75;90.35
47104;BME280;32853;52.164;5.400;2023-01-01T00:24:05;100583.84;;;16.73;89.08
47104;BME280;32853;52.164;5.400;2023-01-01T00:26:33;100605.63;;;16.76;88.28
47104;BME280;32853;52.164;5.400;2023-01-01T00:28:58;100608.97;;;16.91;88.29
47104;BME280;32853;52.164;5.400;2023-01-01T00:31:24;100572.41;;;16.60;88.16
47104;BME280;32853;52.164;5.400;2023-01-01T00:33:51;100602.97;;;16.76;88.87
47104;BME280;32853;52.164;5.400;2023-01-01T00:36:18;100554.66;;;16.62;88.40
47104;BME280;32853;52.164;5.400;2023-01-01T00:38:47;100609.59;;;16.95;88.28
47104;BME280;32853;52.164;5.400;2023-01-01T00:41:13;100561.66;;;16.88;89.44
47104;BME280;32853;52.164;5.400;2023-01-01T00:43:39;100609.09;;;16.77;90.40
47104;BME280;32853;52.164;5.400;2023-01-01T00:46:06;100608.34;;;16.88;89.00
47104;BME280;32853;52.164;5.400;2023-01-01T00:48:36;100614.59;;;16.99;88.57
47104;BME280;32853;52.164;5.400;2023-01-01T00:51:16;100616.16;;;16.89;88.75
47104;BME280;32853;52.164;5.400;2023-01-01T00:53:49;100616.81;;;16.80;88.19
47104;BME280;32853;52.164;5.400;2023-01-01T00:56:17;100619.44;;;16.93;88.36
47104;BME280;32853;52.164;5.400;2023-01-01T00:58:48;100610.56;;;16.94;88.59
47104;BME280;32853;52.164;5.400;2023-01-01T01:01:14;100609.72;;;16.93;88.45
47104;BME280;32853;52.164;5.400;2023-01-01T01:03:39;100612.16;;;16.96;86.72
47104;BME280;32853;52.164;5.400;2023-01-01T01:08:33;100625.47;;;16.82;87.01
47104;BME280;32853;52.164;5.400;2023-01-01T01:11:13;100576.97;;;16.58;88.25
47104;BME280;32853;52.164;5.400;2023-01-01T01:13:50;100622.63;;;16.85;87.25
47104;BME280;32853;52.164;5.400;2023-01-01T01:16:20;100619.13;;;16.97;86.07
47104;BME280;32853;52.164;5.400;2023-01-01T01:18:51;100620.59;;;17.01;87.34
47104;BME280;32853;52.164;5.400;2023-01-01T01:21:22;100586.34;;;16.62;86.14
47104;BME280;32853;52.164;5.400;2023-01-01T01:23:52;100619.53;;;16.91;87.53
47104;BME280;32853;52.164;5.400;2023-01-01T01:26:23;100645.63;;;16.83;86.77
47104;BME280;32853;52.164;5.400;2023-01-01T01:28:49;100650.72;;;16.86;87.24
47104;BME280;32853;52.164;5.400;2023-01-01T01:31:15;100649.34;;;16.80;86.87
47104;BME280;32853;52.164;5.400;2023-01-01T01:33:44;100637.06;;;16.67;88.25
47104;BME280;32853;52.164;5.400;2023-01-01T01:36:11;100653.56;;;16.83;90.66
47104;BME280;32853;52.164;5.400;2023-01-01T01:38:37;100646.94;;;16.50;93.41
47104;BME280;32853;52.164;5.400;2023-01-01T01:41:17;100669.75;;;16.78;93.21
47104;BME280;32853;52.164;5.400;2023-01-01T01:46:52;100631.09;;;16.38;92.73
47104;BME280;32853;52.164;5.400;2023-01-01T01:49:26;100676.13;;;16.62;94.33
47104;BME280;32853;52.164;5.400;2023-01-01T01:51:53;100636.94;;;16.43;93.48
47104;BME280;32853;52.164;5.400;2023-01-01T01:54:25;100681.50;;;16.47;94.27
47104;BME280;32853;52.164;5.400;2023-01-01T01:56:55;100641.03;;;16.34;94.53
47104;BME280;32853;52.164;5.400;2023-01-01T01:59:24;100676.09;;;16.49;93.15
47104;BME280;32853;52.164;5.400;2023-01-01T02:01:50;100675.16;;;16.50;93.07
47104;BME280;32853;52.164;5.400;2023-01-01T02:04:16;100686.41;;;16.39;93.18
47104;BME280;32853;52.164;5.400;2023-01-01T02:06:47;100650.47;;;16.11;93.36
47104;BME280;32853;52.164;5.400;2023-01-01T02:09:14;100667.94;;;16.39;92.76
47104;BME280;32853;52.164;5.400;2023-01-01T02:11:39;100673.28;;;16.52;91.33
47104;BME280;32853;52.164;5.400;2023-01-01T02:14:05;100694.19;;;16.55;90.77
47104;BME280;32853;52.164;5.400;2023-01-01T02:17:14;100695.97;;;16.54;92.11
47104;BME280;32853;52.164;5.400;2023-01-01T02:22:55;100693.94;;;16.45;91.32
47104;BME280;32853;52.164;5.400;2023-01-01T02:28:14;100712.63;;;16.42;91.37
47104;BME280;32853;52.164;5.400;2023-01-01T02:30:47;100707.16;;;16.45;90.88
47104;BME280;32853;52.164;5.400;2023-01-01T02:33:17;100657.25;;;16.28;91.03
47104;BME280;32853;52.164;5.400;2023-01-01T02:36:03;100703.94;;;16.40;90.91
47104;BME280;32853;52.164;5.400;2023-01-01T02:38:40;100713.66;;;16.40;90.13
47104;BME280;32853;52.164;5.400;2023-01-01T02:41:11;100664.84;;;16.20;90.40
47104;BME280;32853;52.164;5.400;2023-01-01T02:43:37;100693.72;;;16.48;88.72
47104;BME280;32853;52.164;5.400;2023-01-01T02:46:10;100654.25;;;16.07;89.58
47104;BME280;32853;52.164;5.400;2023-01-01T02:48:41;100693.22;;;16.43;88.90
47104;BME280;32853;52.164;5.400;2023-01-01T02:51:16;100714.94;;;16.34;89.94
47104;BME280;32853;52.164;5.400;2023-01-01T02:59:25;100663.66;;;16.11;90.79
47104;BME280;32853;52.164;5.400;2023-01-01T03:16:44;100705.72;;;16.27;90.19
47104;BME280;32853;52.164;5.400;2023-01-01T03:19:15;100735.09;;;16.35;90.21
47104;BME280;32853;52.164;5.400;2023-01-01T03:22:00;100669.00;;;15.97;89.67
47104;BME280;32853;52.164;5.400;2023-01-01T03:24:51;100719.75;;;16.27;89.71
47104;BME280;32853;52.164;5.400;2023-01-01T03:27:57;100722.22;;;16.31;89.76
47104;BME280;32853;52.164;5.400;2023-01-01T03:30:23;100726.94;;;16.25;90.80
47104;BME280;32853;52.164;5.400;2023-01-01T03:38:25;100732.09;;;16.27;90.23
47104;BME280;32853;52.164;5.400;2023-01-01T03:41:01;100709.94;;;16.03;91.20
47104;BME280;32853;52.164;5.400;2023-01-01T03:43:49;100742.00;;;16.23;90.88
47104;BME280;32853;52.164;5.400;2023-01-01T03:46:25;100705.94;;;15.97;90.09
47104;BME280;32853;52.164;5.400;2023-01-01T03:48:53;100780.16;;;16.32;90.15
47104;BME280;32853;52.164;5.400;2023-01-01T03:54:24;100756.00;;;16.11;96.00
47104;BME280;32853;52.164;5.400;2023-01-01T03:57:10;100782.41;;;15.83;100.00
47104;BME280;32853;52.164;5.400;2023-01-01T04:02:40;100736.75;;;15.54;100.00
47104;BME280;32853;52.164;5.400;2023-01-01T04:05:08;100786.88;;;15.68;100.00
47104;BME280;32853;52.164;5.400;2023-01-01T04:07:35;100803.84;;;15.64;100.00
47104;BME280;32853;52.164;5.400;2023-01-01T04:10:05;100810.13;;;15.61;100.00
47104;BME280;32853;52.164;5.400;2023-01-01T04:12:43;100826.09;;;15.58;100.00
47104;BME280;32853;52.164;5.400;2023-01-01T04:15:09;100795.38;;;15.29;100.00
47104;BME280;32853;52.164;5.400;2023-01-01T04:17:34;100823.56;;;15.57;100.00
47104;BME280;32853;52.164;5.400;2023-01-01T04:20:03;100826.19;;;15.43;100.00
47104;BME280;32853;52.164;5.400;2023-01-01T04:22:29;100810.38;;;15.43;100.00
47104;BME280;32853;52.164;5.400;2023-01-01T04:24:54;100796.41;;;15.26;100.00
47104;BME280;32853;52.164;5.400;2023-01-01T04:27:20;100812.44;;;15.52;100.00
47104;BME280;32853;52.164;5.400;2023-01-01T04:29:45;100804.72;;;15.49;100.00
47104;BME280;32853;52.164;5.400;2023-01-01T04:32:11;100802.56;;;15.41;100.00
47104;BME280;32853;52.164;5.400;2023-01-01T04:34:39;100823.06;;;15.50;100.00
47104;BME280;32853;52.164;5.400;2023-01-01T04:37:07;100818.50;;;15.09;100.00
47104;BME280;32853;52.164;5.400;2023-01-01T04:39:34;100809.28;;;15.17;100.00
47104;BME280;32853;52.164;5.400;2023-01-01T04:41:59;100813.88;;;14.99;100.00
47104;BME280;32853;52.164;5.400;2023-01-01T04:44:27;100826.19;;;14.98;100.00
47104;BME280;32853;52.164;5.400;2023-01-01T04:46:53;100805.75;;;14.88;100.00
47104;BME280;32853;52.164;5.400;2023-01-01T04:49:21;100823.94;;;14.76;100.00
47104;BME280;32853;52.164;5.400;2023-01-01T04:51:47;100858.03;;;14.94;100.00
47104;BME280;32853;52.164;5.400;2023-01-01T04:54:15;100854.97;;;15.01;100.00
47104;BME280;32853;52.164;5.400;2023-01-01T04:56:41;100826.06;;;14.86;100.00
47104;BME280;32853;52.164;5.400;2023-01-01T04:59:15;100876.97;;;15.00;100.00
47104;BME280;32853;52.164;5.400;2023-01-01T05:01:40;100872.31;;;14.90;100.00
47104;BME280;32853;52.164;5.400;2023-01-01T05:04:14;100888.78;;;14.93;100.00
47104;BME280;32853;52.164;5.400;2023-01-01T05:06:39;100883.75;;;15.04;100.00
47104;BME280;32853;52.164;5.400;2023-01-01T05:09:05;100881.16;;;14.89;100.00
47104;BME280;32853;52.164;5.400;2023-01-01T05:11:30;100876.31;;;14.97;100.00
47104;BME280;32853;52.164;5.400;2023-01-01T05:14:00;100852.38;;;14.86;100.00
47104;BME280;32853;52.164;5.400;2023-01-01T05:16:28;100886.13;;;15.09;100.00
47104;BME280;32853;52.164;5.400;2023-01-01T05:19:07;100893.34;;;15.05;100.00
47104;BME280;32853;52.164;5.400;2023-01-01T05:21:38;100856.47;;;14.75;100.00
47104;BME280;32853;52.164;5.400;2023-01-01T05:24:06;100889.50;;;14.81;100.00
47104;BME280;32853;52.164;5.400;2023-01-01T05:26:34;100887.09;;;14.92;100.00
47104;BME280;32853;52.164;5.400;2023-01-01T05:29:00;100906.03;;;14.99;100.00
47104;BME280;32853;52.164;5.400;2023-01-01T05:31:28;100870.81;;;15.16;100.00
47104;BME280;32853;52.164;5.400;2023-01-01T05:33:54;100886.75;;;14.98;100.00
47104;BME280;32853;52.164;5.400;2023-01-01T05:36:27;100892.44;;;14.91;100.00
47104;BME280;32853;52.164;5.400;2023-01-01T05:38:53;100916.31;;;15.03;100.00
47104;BME280;32853;52.164;5.400;2023-01-01T05:41:31;100916.06;;;14.92;100.00
47104;BME280;32853;52.164;5.400;2023-01-01T05:44:04;100886.19;;;14.62;100.00
47104;BME280;32853;52.164;5.400;2023-01-01T05:46:32;100924.31;;;14.86;100.00
47104;BME280;32853;52.164;5.400;2023-01-01T05:48:57;100902.84;;;14.78;100.00
47104;BME280;32853;52.164;5.400;2023-01-01T05:51:25;100919.44;;;15.10;100.00
47104;BME280;32853;52.164;5.400;2023-01-01T05:53:52;100938.72;;;14.95;100.00
47104;BME280;32853;52.164;5.400;2023-01-01T05:56:20;100910.66;;;14.79;100.00
47104;BME280;32853;52.164;5.400;2023-01-01T05:58:45;100931.19;;;14.89;100.00
47104;BME280;32853;52.164;5.400;2023-01-01T06:01:21;100854.50;;;14.32;100.00
47104;BME280;32853;52.164;5.400;2023-01-01T06:03:54;100929.34;;;14.75;100.00
47104;BME280;32853;52.164;5.400;2023-01-01T06:06:28;100956.84;;;14.69;100.00
47104;BME280;32853;52.164;5.400;2023-01-01T06:09:00;100941.97;;;14.68;100.00
47104;BME280;32853;52.164;5.400;2023-01-01T06:11:35;100950.13;;;14.79;100.00
47104;BME280;32853;52.164;5.400;2023-01-01T06:14:01;100935.25;;;14.63;100.00
47104;BME280;32853;52.164;5.400;2023-01-01T06:16:28;100975.53;;;14.80;100.00
47104;BME280;32853;52.164;5.400;2023-01-01T06:18:57;100968.56;;;14.79;100.00
47104;BME280;32853;52.164;5.400;2023-01-01T06:21:26;100956.78;;;14.87;100.00
47104;BME280;32853;52.164;5.400;2023-01-01T06:23:55;100997.63;;;14.78;100.00
47104;BME280;32853;52.164;5.400;2023-01-01T06:26:29;100952.78;;;14.64;100.00
47104;BME280;32853;52.164;5.400;2023-01-01T06:29:05;100994.13;;;14.77;100.00
47104;BME280;32853;52.164;5.400;2023-01-01T06:31:46;100971.78;;;14.53;100.00
47104;BME280;32853;52.164;5.400;2023-01-01T06:34:12;100996.31;;;14.85;100.00
47104;BME280;32853;52.164;5.400;2023-01-01T06:36:37;100956.59;;;14.41;100.00
47104;BME280;32853;52.164;5.400;2023-01-01T06:39:02;100966.34;;;14.39;100.00
47104;BME280;32853;52.164;5.400;2023-01-01T06:41:28;100962.97;;;14.37;100.00
47104;BME280;32853;52.164;5.400;2023-01-01T06:43:55;101019.00;;;14.72;100.00
47104;BME280;32853;52.164;5.400;2023-01-01T06:46:29;101013.34;;;14.46;100.00
47104;BME280;32853;52.164;5.400;2023-01-01T06:48:57;100992.56;;;14.24;100.00
47104;BME280;32853;52.164;5.400;2023-01-01T06:51:30;101032.38;;;14.51;100.00
47104;BME280;32853;52.164;5.400;2023-01-01T06:54:00;101048.38;;;14.64;100.00
47104;BME280;32853;52.164;5.400;2023-01-01T06:56:26;101049.25;;;14.47;98.97
47104;BME280;32853;52.164;5.400;2023-01-01T06:59:05;101003.72;;;14.12;100.00
47104;BME280;32853;52.164;5.400;2023-01-01T07:01:40;101039.56;;;14.65;98.94
47104;BME280;32853;52.164;5.400;2023-01-01T07:04:09;101054.41;;;14.66;95.64
47104;BME280;32853;52.164;5.400;2023-01-01T07:06:43;101002.41;;;14.21;95.88
47104;BME280;32853;52.164;5.400;2023-01-01T07:09:09;101057.47;;;14.41;95.45
47104;BME280;32853;52.164;5.400;2023-01-01T07:11:35;101040.53;;;14.47;96.30
47104;BME280;32853;52.164;5.400;2023-01-01T07:14:01;101051.13;;;14.45;96.08
47104;BME280;32853;52.164;5.400;2023-01-01T07:16:28;101071.78;;;14.36;95.52
47104;BME280;32853;52.164;5.400;2023-01-01T07:19:00;101091.91;;;14.54;95.70
47104;BME280;32853;52.164;5.400;2023-01-01T07:24:07;101096.72;;;14.46;95.37
47104;BME280;32853;52.164;5.400;2023-01-01T07:26:33;101048.06;;;14.03;95.17
47104;BME280;32853;52.164;5.400;2023-01-01T07:28:59;101104.63;;;14.46;94.90
47104;BME280;32853;52.164;5.400;2023-01-01T07:31:25;101071.19;;;14.13;95.80
47104;BME280;32853;52.164;5.400;2023-01-01T07:33:51;101112.09;;;14.36;95.80
47104;BME280;32853;52.164;5.400;2023-01-01T07:36:17;101100.41;;;14.24;96.39
47104;BME280;32853;52.164;5.400;2023-01-01T07:38:45;101086.81;;;13.99;97.46
47104;BME280;32853;52.164;5.400;2023-01-01T07:41:14;101099.88;;;14.01;98.65
47104;BME280;32853;52.164;5.400;2023-01-01T07:43:51;101103.28;;;14.03;97.83
47104;BME280;32853;52.164;5.400;2023-01-01T07:46:17;101140.16;;;14.18;98.43
47104;BME280;32853;52.164;5.400;2023-01-01T07:48:44;101167.56;;;14.14;99.78
47104;BME280;32853;52.164;5.400;2023-01-01T07:51:13;101152.16;;;14.07;100.00
47104;BME280;32853;52.164;5.400;2023-01-01T07:53:38;101110.75;;;13.76;100.00
47104;BME280;32853;52.164;5.400;2023-01-01T07:56:16;101171.38;;;14.09;100.00
47104;BME280;32853;52.164;5.400;2023-01-01T07:58:42;101165.22;;;13.91;100.00
47104;BME280;32853;52.164;5.400;2023-01-01T08:01:12;101157.09;;;13.59;100.00
47104;BME280;32853;52.164;5.400;2023-01-01T08:03:38;101183.97;;;13.83;100.00
47104;BME280;32853;52.164;5.400;2023-01-01T08:06:11;101159.50;;;13.64;100.00
47104;BME280;32853;52.164;5.400;2023-01-01T08:08:37;101194.66;;;13.80;100.00
47104;BME280;32853;52.164;5.400;2023-01-01T08:11:03;101198.69;;;13.69;100.00
47104;BME280;32853;52.164;5.400;2023-01-01T08:13:28;101197.44;;;13.77;100.00
47104;BME280;32853;52.164;5.400;2023-01-01T08:15:56;101216.03;;;13.73;100.00
47104;BME280;32853;52.164;5.400;2023-01-01T08:18:21;101211.69;;;13.72;100.00
47104;BME280;32853;52.164;5.400;2023-01-01T08:20:47;101220.94;;;13.80;100.00
47104;BME280;32853;52.164;5.400;2023-01-01T08:23:13;101220.31;;;13.56;100.00
47104;BME280;32853;52.164;5.400;2023-01-01T08:26:05;101240.53;;;13.73;100.00
47104;BME280;32853;52.164;5.400;2023-01-01T08:28:30;101224.78;;;13.54;100.00
47104;BME280;32853;52.164;5.400;2023-01-01T08:30:55;101213.00;;;13.44;100.00
47104;BME280;32853;52.164;5.400;2023-01-01T08:33:23;101223.91;;;13.35;100.00
47104;BME280;32853;52.164;5.400;2023-01-01T08:35:50;101247.59;;;13.54;100.00
47104;BME280;32853;52.164;5.400;2023-01-01T08:38:15;101194.88;;;13.18;100.00
47104;BME280;32853;52.164;5.400;2023-01-01T08:40:45;101207.22;;;13.36;100.00
47104;BME280;32853;52.164;5.400;2023-01-01T08:43:10;101185.28;;;13.37;100.00
47104;BME280;32853;52.164;5.400;2023-01-01T08:45:35;101230.03;;;13.54;100.00
47104;BME280;32853;52.164;5.400;2023-01-01T08:48:16;101190.69;;;13.34;100.00
47104;BME280;32853;52.164;5.400;2023-01-01T08:50:54;101217.00;;;13.51;100.00
47104;BME280;32853;52.164;5.400;2023-01-01T08:53:39;101204.38;;;13.41;100.00
47104;BME280;32853;52.164;5.400;2023-01-01T08:56:10;101243.03;;;13.57;100.00
47104;BME280;32853;52.164;5.400;2023-01-01T08:58:36;101211.19;;;13.26;100.00
47104;BME280;32853;52.164;5.400;2023-01-01T09:01:03;101259.72;;;13.56;100.00
47104;BME280;32853;52.164;5.400;2023-01-01T09:03:28;101233.63;;;13.33;100.00
47104;BME280;32853;52.164;5.400;2023-01-01T09:05:54;101253.38;;;13.60;100.00
47104;BME280;32853;52.164;5.400;2023-01-01T09:08:21;101266.28;;;13.66;100.00
47104;BME280;32853;52.164;5.400;2023-01-01T09:10:47;101272.22;;;13.70;100.00
47104;BME280;32853;52.164;5.400;2023-01-01T09:13:16;101233.16;;;13.44;100.00
47104;BME280;32853;52.164;5.400;2023-01-01T09:15:43;101250.03;;;13.38;100.00
47104;BME280;32853;52.164;5.400;2023-01-01T09:18:10;101282.66;;;13.53;100.00
47104;BME280;32853;52.164;5.400;2023-01-01T09:20:36;101288.91;;;13.69;100.00
47104;BME280;32853;52.164;5.400;2023-01-01T09:23:06;101273.28;;;13.47;100.00
47104;BME280;32853;52.164;5.400;2023-01-01T09:25:32;101290.06;;;13.63;100.00
47104;BME280;32853;52.164;5.400;2023-01-01T09:28:06;101239.44;;;13.40;100.00
47104;BME280;32853;52.164;5.400;2023-01-01T09:30:34;101277.41;;;13.72;100.00
47104;BME280;32853;52.164;5.400;2023-01-01T09:33:03;101280.78;;;13.75;100.00
47104;BME280;32853;52.164;5.400;2023-01-01T09:35:40;101252.09;;;13.50;100.00
47104;BME280;32853;52.164;5.400;2023-01-01T09:38:08;101260.63;;;13.74;100.00
47104;BME280;32853;52.164;5.400;2023-01-01T09:40:44;101283.09;;;13.81;100.00
47104;BME280;32853;52.164;5.400;2023-01-01T09:43:24;101289.00;;;13.68;100.00
47104;BME280;32853;52.164;5.400;2023-01-01T09:45:59;101254.41;;;13.77;100.00
47104;BME280;32853;52.164;5.400;2023-01-01T09:48:28;101288.88;;;13.89;100.00
47104;BME280;32853;52.164;5.400;2023-01-01T09:51:04;101283.94;;;13.82;100.00
47104;BME280;32853;52.164;5.400;2023-01-01T09:53:37;101258.59;;;13.81;100.00
47104;BME280;32853;52.164;5.400;2023-01-01T09:56:12;101286.38;;;13.86;100.00
47104;BME280;32853;52.164;5.400;2023-01-01T09:58:44;101311.72;;;14.06;100.00
47104;BME280;32853;52.164;5.400;2023-01-01T10:04:35;101293.28;;;14.08;100.00
47104;BME280;32853;52.164;5.400;2023-01-01T10:12:37;101323.09;;;14.25;100.00
47104;BME280;32853;52.164;5.400;2023-01-01T10:15:15;101312.06;;;14.17;100.00
47104;BME280;32853;52.164;5.400;2023-01-01T10:17:46;101292.34;;;14.09;100.00
47104;BME280;32853;52.164;5.400;2023-01-01T10:20:31;101328.22;;;14.29;100.00
47104;BME280;32853;52.164;5.400;2023-01-01T10:23:18;101307.31;;;14.25;100.00
47104;BME280;32853;52.164;5.400;2023-01-01T10:25:44;101316.63;;;14.33;100.00
47104;BME280;32853;52.164;5.400;2023-01-01T10:28:18;101297.97;;;14.37;100.00
47104;BME280;32853;52.164;5.400;2023-01-01T10:30:46;101302.22;;;14.40;100.00
47104;BME280;32853;52.164;5.400;2023-01-01T10:33:13;101280.50;;;14.36;100.00
47104;BME280;32853;52.164;5.400;2023-01-01T10:35:45;101297.91;;;14.58;100.00
47104;BME280;32853;52.164;5.400;2023-01-01T10:38:25;101273.16;;;14.43;100.00
47104;BME280;32853;52.164;5.400;2023-01-01T10:40:52;101252.63;;;14.32;100.00
47104;BME280;32853;52.164;5.400;2023-01-01T10:43:43;101271.09;;;14.49;100.00
47104;BME280;32853;52.164;5.400;2023-01-01T10:46:15;101279.63;;;14.55;100.00
47104;BME280;32853;52.164;5.400;2023-01-01T10:49:22;101260.13;;;14.59;100.00
47104;BME280;32853;52.164;5.400;2023-01-01T10:51:56;101257.31;;;14.62;100.00
47104;BME280;32853;52.164;5.400;2023-01-01T10:54:37;101239.56;;;14.31;100.00
47104;BME280;32853;52.164;5.400;2023-01-01T10:57:18;101284.06;;;14.35;100.00
47104;BME280;32853;52.164;5.400;2023-01-01T10:59:44;101263.97;;;14.15;100.00
47104;BME280;32853;52.164;5.400;2023-01-01T11:04:40;101299.84;;;14.54;100.00
47104;BME280;32853;52.164;5.400;2023-01-01T11:07:06;101295.19;;;14.59;100.00
47104;BME280;32853;52.164;5.400;2023-01-01T11:09:32;101323.97;;;14.62;100.00
47104;BME280;32853;52.164;5.400;2023-01-01T11:12:05;101276.84;;;14.39;100.00
47104;BME280;32853;52.164;5.400;2023-01-01T11:17:03;101338.31;;;14.74;100.00
47104;BME280;32853;52.164;5.400;2023-01-01T11:19:46;101329.28;;;14.79;100.00
47104;BME280;32853;52.164;5.400;2023-01-01T11:22:45;101341.97;;;14.71;100.00
47104;BME280;32853;52.164;5.400;2023-01-01T11:25:26;101342.16;;;14.86;100.00
47104;BME280;32853;52.164;5.400;2023-01-01T11:28:15;101350.03;;;14.68;100.00
47104;BME280;32853;52.164;5.400;2023-01-01T11:31:20;101343.13;;;14.66;100.00
47104;BME280;32853;52.164;5.400;2023-01-01T11:33:50;101333.13;;;14.36;100.00
47104;BME280;32853;52.164;5.400;2023-01-01T11:36:30;101346.06;;;14.60;100.00
47104;BME280;32853;52.164;5.400;2023-01-01T11:39:18;101334.84;;;14.73;100.00
47104;BME280;32853;52.164;5.400;2023-01-01T11:41:49;101314.88;;;14.69;100.00
47104;BME280;32853;52.164;5.400;2023-01-01T11:44:43;101331.31;;;14.74;100.00
47104;BME280;32853;52.164;5.400;2023-01-01T11:47:44;101319.19;;;14.70;100.00
47104;BME280;32853;52.164;5.400;2023-01-01T11:52:50;101320.44;;;14.63;100.00
47104;BME280;32853;52.164;5.400;2023-01-01T11:55:39;101327.41;;;14.81;100.00
47104;BME280;32853;52.164;5.400;2023-01-01T12:00:55;101305.44;;;14.82;100.00
47104;BME280;32853;52.164;5.400;2023-01-01T12:03:55;101327.56;;;14.96;100.00
47104;BME280;32853;52.164;5.400;2023-01-01T12:09:12;101318.75;;;14.79;100.00
47104;BME280;32853;52.164;5.400;2023-01-01T12:11:59;101341.44;;;14.82;100.00
47104;BME280;32853;52.164;5.400;2023-01-01T12:14:50;101354.25;;;14.90;100.00
47104;BME280;32853;52.164;5.400;2023-01-01T12:17:46;101338.91;;;14.98;100.00
47104;BME280;32853;52.164;5.400;2023-01-01T12:20:18;101313.94;;;14.53;100.00
47104;BME280;32853;52.164;5.400;2023-01-01T12:22:47;101350.59;;;14.75;100.00
47104;BME280;32853;52.164;5.400;2023-01-01T12:25:15;101314.78;;;14.71;100.00
47104;BME280;32853;52.164;5.400;2023-01-01T12:48:35;101341.19;;;14.69;100.00
47104;BME280;32853;52.164;5.400;2023-01-01T12:57:31;101332.53;;;14.67;100.00
47104;BME280;32853;52.164;5.400;2023-01-01T13:00:11;101336.69;;;14.71;100.00
47104;BME280;32853;52.164;5.400;2023-01-01T13:02:45;101340.63;;;14.63;100.00
47104;BME280;32853;52.164;5.400;2023-01-01T13:05:35;101280.13;;;14.44;100.00
47104;BME280;32853;52.164;5.400;2023-01-01T13:08:14;101345.25;;;14.76;100.00
47104;BME280;32853;52.164;5.400;2023-01-01T13:10:42;101303.84;;;14.61;100.00
47104;BME280;32853;52.164;5.400;2023-01-01T13:13:11;101351.81;;;14.85;100.00
47104;BME280;32853;52.164;5.400;2023-01-01T13:42:41;101334.59;;;14.97;100.00
47104;BME280;32853;52.164;5.400;2023-01-01T13:45:28;101336.63;;;15.07;100.00
47104;BME280;32853;52.164;5.400;2023-01-01T13:49:02;101326.59;;;14.98;100.00
47104;BME280;32853;52.164;5.400;2023-01-01T13:51:20;101332.25;;;14.91;100.00
47104;BME280;32853;52.164;5.400;2023-01-01T13:56:54;101344.19;;;14.98;100.00
47104;BME280;32853;52.164;5.400;2023-01-01T13:59:50;101337.91;;;15.00;100.00
47104;BME280;32853;52.164;5.400;2023-01-01T14:02:25;101350.06;;;15.03;100.00
47104;BME280;32853;52.164;5.400;2023-01-01T14:07:19;101349.03;;;15.05;100.00
47104;BME280;32853;52.164;5.400;2023-01-01T14:09:47;101333.25;;;15.05;100.00
47104;BME280;32853;52.164;5.400;2023-01-01T14:12:18;101358.28;;;15.14;100.00
47104;BME280;32853;52.164;5.400;2023-01-01T14:14:44;101356.28;;;15.19;100.00
47104;BME280;32853;52.164;5.400;2023-01-01T14:17:12;101352.72;;;15.20;100.00
47104;BME280;32853;52.164;5.400;2023-01-01T14:19:39;101348.13;;;15.06;100.00
47104;BME280;32853;52.164;5.400;2023-01-01T14:22:07;101356.34;;;15.35;100.00
47104;BME280;32853;52.164;5.400;2023-01-01T14:24:38;101357.56;;;15.28;100.00
47104;BME280;32853;52.164;5.400;2023-01-01T14:27:05;101354.41;;;15.21;100.00
47104;BME280;32853;52.164;5.400;2023-01-01T14:29:30;101351.00;;;15.19;100.00
47104;BME280;32853;52.164;5.400;2023-01-01T14:31:58;101332.25;;;15.08;100.00
47104;BME280;32853;52.164;5.400;2023-01-01T14:34:31;101344.16;;;15.15;100.00
47104;BME280;32853;52.164;5.400;2023-01-01T14:37:01;101329.28;;;15.14;100.00
47104;BME280;32853;52.164;5.400;2023-01-01T14:39:31;101347.66;;;15.16;100.00
47104;BME280;32853;52.164;5.400;2023-01-01T14:42:11;101355.00;;;15.26;100.00
47104;BME280;32853;52.164;5.400;2023-01-01T14:44:48;101323.56;;;14.89;100.00
47104;BME280;32853;52.164;5.400;2023-01-01T14:47:34;101363.38;;;15.17;100.00
47104;BME280;32853;52.164;5.400;2023-01-01T14:50:04;101314.41;;;14.96;100.00
47104;BME280;32853;52.164;5.400;2023-01-01T14:52:35;101350.69;;;15.25;100.00
47104;BME280;32853;52.164;5.400;2023-01-01T14:55:02;101345.56;;;15.05;100.00
47104;BME280;32853;52.164;5.400;2023-01-01T14:57:34;101352.00;;;14.99;100.00
47104;BME280;32853;52.164;5.400;2023-01-01T15:00:13;101345.09;;;15.14;100.00
47104;BME280;32853;52.164;5.400;2023-01-01T15:02:40;101318.63;;;15.00;100.00
47104;BME280;32853;52.164;5.400;2023-01-01T15:05:29;101330.47;;;15.08;100.00
47104;BME280;32853;52.164;5.400;2023-01-01T15:07:59;101338.13;;;15.13;100.00
47104;BME280;32853;52.164;5.400;2023-01-01T15:10:26;101342.00;;;15.23;100.00
47104;BME280;32853;52.164;5.400;2023-01-01T15:12:52;101343.41;;;15.13;100.00
47104;BME280;32853;52.164;5.400;2023-01-01T15:15:51;101340.50;;;15.18;100.00